Time,TemperatureF,DewpointF,PressureIn,WindDirection,WindDirectionDegrees,WindSpeedMPH,WindSpeedGustMPH,Humidity,HourlyPrecipIn,Conditions,Clouds,dailyrainin,SoftwareType,DateUTC
2013-03-24 00:08:00,32.2,21.0,29.78,WSW,243,0.0,3.0,63,0.00,,,0.00,weatherlink.com 1.10,2013-03-24 04:08:00,
2013-03-24 00:23:00,31.4,22.0,29.77,WSW,246,1.0,2.0,69,0.00,,,0.00,weatherlink.com 1.10,2013-03-24 04:23:00,
2013-03-24 00:38:00,31.3,21.0,29.77,SE,134,1.0,2.0,66,0.00,,,0.00,weatherlink.com 1.10,2013-03-24 04:38:00,
2013-03-24 00:53:00,31.1,21.0,29.77,SW,214,1.0,1.0,66,0.00,,,0.00,weatherlink.com 1.10,2013-03-24 04:53:00,
2013-03-24 01:08:00,31.3,22.0,29.76,SE,146,1.0,2.0,68,0.00,,,0.00,weatherlink.com 1.10,2013-03-24 05:08:00,
2013-03-24 01:23:00,31.6,21.0,29.77,WSW,240,1.0,5.0,66,0.00,,,0.00,weatherlink.com 1.10,2013-03-24 05:23:00,
2013-03-24 01:39:00,31.2,22.0,29.77,WSW,255,0.0,2.0,68,0.00,,,0.00,weatherlink.com 1.10,2013-03-24 05:39:00,
2013-03-24 01:55:00,31.0,22.0,29.77,WSW,249,0.0,1.0,68,0.00,,,0.00,weatherlink.com 1.10,2013-03-24 05:55:00,
2013-03-24 02:09:00,31.0,22.0,29.77,WNW,297,1.0,2.0,69,0.00,,,0.00,weatherlink.com 1.10,2013-03-24 06:09:00,
2013-03-24 02:24:00,31.3,21.0,29.77,WNW,283,1.0,2.0,67,0.00,,,0.00,weatherlink.com 1.10,2013-03-24 06:24:00,
2013-03-24 02:39:00,31.4,22.0,29.76,West,270,0.0,2.0,68,0.00,,,0.00,weatherlink.com 1.10,2013-03-24 06:39:00,
2013-03-24 02:54:00,31.0,22.0,29.76,West,274,0.0,3.0,69,0.00,,,0.00,weatherlink.com 1.10,2013-03-24 06:54:00,
2013-03-24 03:09:00,31.0,22.0,29.77,WSW,243,0.0,2.0,69,0.00,,,0.00,weatherlink.com 1.10,2013-03-24 07:09:00,
2013-03-24 03:24:00,30.6,23.0,29.76,NW,318,0.0,2.0,72,0.00,,,0.00,weatherlink.com 1.10,2013-03-24 07:24:00,
2013-03-24 03:39:00,30.5,23.0,29.75,NW,307,1.0,3.0,73,0.00,,,0.00,weatherlink.com 1.10,2013-03-24 07:39:00,
2013-03-24 03:54:00,30.5,23.0,29.75,WSW,245,0.0,5.0,73,0.00,,,0.00,weatherlink.com 1.10,2013-03-24 07:54:00,
2013-03-24 04:09:00,30.3,23.0,29.75,WNW,283,0.0,3.0,73,0.00,,,0.00,weatherlink.com 1.10,2013-03-24 08:09:00,
2013-03-24 04:24:00,30.4,23.0,29.75,SW,235,0.0,3.0,73,0.00,,,0.00,weatherlink.com 1.10,2013-03-24 08:24:00,
2013-03-24 04:39:00,30.1,23.0,29.75,West,269,0.0,2.0,75,0.00,,,0.00,weatherlink.com 1.10,2013-03-24 08:39:00,
2013-03-24 04:54:00,30.6,23.0,29.75,NW,315,0.0,2.0,73,0.00,,,0.00,weatherlink.com 1.10,2013-03-24 08:54:00,
2013-03-24 05:09:00,30.2,23.0,29.76,NW,307,1.0,1.0,74,0.00,,,0.00,weatherlink.com 1.10,2013-03-24 09:09:00,
2013-03-24 05:24:00,30.0,23.0,29.75,WSW,238,1.0,1.0,75,0.00,,,0.00,weatherlink.com 1.10,2013-03-24 09:24:00,
2013-03-24 05:39:00,30.0,23.0,29.75,WSW,242,0.0,2.0,74,0.00,,,0.00,weatherlink.com 1.10,2013-03-24 09:39:00,
2013-03-24 05:54:00,30.0,23.0,29.76,SSW,207,0.0,1.0,74,0.00,,,0.00,weatherlink.com 1.10,2013-03-24 09:54:00,
2013-03-24 06:09:00,29.7,23.0,29.77,WSW,245,1.0,1.0,75,0.00,,,0.00,weatherlink.com 1.10,2013-03-24 10:09:00,
2013-03-24 06:24:00,29.4,23.0,29.78,SSW,212,0.0,1.0,76,0.00,,,0.00,weatherlink.com 1.10,2013-03-24 10:24:00,
2013-03-24 06:39:00,29.0,23.0,29.79,SW,229,0.0,1.0,77,0.00,,,0.00,weatherlink.com 1.10,2013-03-24 10:39:00,
2013-03-24 06:54:00,28.8,23.0,29.79,WSW,246,0.0,2.0,78,0.00,,,0.00,weatherlink.com 1.10,2013-03-24 10:54:00,
2013-03-24 07:09:00,29.5,23.0,29.79,WSW,246,0.0,1.0,76,0.00,,,0.00,weatherlink.com 1.10,2013-03-24 11:09:00,
2013-03-24 07:24:00,29.9,23.0,29.80,SW,222,1.0,1.0,76,0.00,,,0.00,weatherlink.com 1.10,2013-03-24 11:24:00,
2013-03-24 07:39:00,30.9,24.0,29.80,NE,46,0.0,1.0,74,0.00,,,0.00,weatherlink.com 1.10,2013-03-24 11:39:00,
2013-03-24 07:54:00,31.8,25.0,29.80,WNW,291,1.0,1.0,75,0.00,,,0.00,weatherlink.com 1.10,2013-03-24 11:54:00,
2013-03-24 08:09:00,33.3,24.0,29.80,SSW,201,1.0,1.0,70,0.00,,,0.00,weatherlink.com 1.10,2013-03-24 12:09:00,
2013-03-24 08:24:00,34.6,25.0,29.79,NW,325,2.0,3.0,67,0.00,,,0.00,weatherlink.com 1.10,2013-03-24 12:24:00,
2013-03-24 08:39:00,35.6,25.0,29.78,WSW,257,1.0,4.0,66,0.00,,,0.00,weatherlink.com 1.10,2013-03-24 12:39:00,
2013-03-24 08:54:00,36.8,25.0,29.78,West,273,0.0,5.0,63,0.00,,,0.00,weatherlink.com 1.10,2013-03-24 12:54:00,
2013-03-24 09:09:00,38.2,24.0,29.79,NNE,30,5.0,5.0,58,0.00,,,0.00,weatherlink.com 1.10,2013-03-24 13:09:00,
2013-03-24 09:24:00,39.5,25.0,29.80,SW,215,1.0,5.0,56,0.00,,,0.00,weatherlink.com 1.10,2013-03-24 13:24:00,
2013-03-24 09:39:00,39.7,24.0,29.80,NNW,343,3.0,4.0,54,0.00,,,0.00,weatherlink.com 1.10,2013-03-24 13:39:00,
2013-03-24 09:54:00,40.2,25.0,29.80,West,269,2.0,5.0,55,0.00,,,0.00,weatherlink.com 1.10,2013-03-24 13:54:00,
2013-03-24 10:09:00,41.0,26.0,29.80,SSE,153,1.0,4.0,56,0.00,,,0.00,weatherlink.com 1.10,2013-03-24 14:09:00,
2013-03-24 10:25:00,41.5,25.0,29.79,NW,323,1.0,7.0,52,0.00,,,0.00,weatherlink.com 1.10,2013-03-24 14:25:00,
2013-03-24 10:40:00,42.2,24.0,29.80,NNE,15,1.0,5.0,48,0.00,,,0.00,weatherlink.com 1.10,2013-03-24 14:40:00,
2013-03-24 10:55:00,42.3,25.0,29.79,North,358,1.0,3.0,50,0.00,,,0.00,weatherlink.com 1.10,2013-03-24 14:55:00,
2013-03-24 11:10:00,42.5,25.0,29.79,NNW,346,3.0,4.0,50,0.00,,,0.00,weatherlink.com 1.10,2013-03-24 15:10:00,
2013-03-24 11:25:00,42.9,24.0,29.79,NE,39,1.0,4.0,47,0.00,,,0.00,weatherlink.com 1.10,2013-03-24 15:25:00,
2013-03-24 11:40:00,43.3,26.0,29.78,WSW,255,2.0,4.0,50,0.00,,,0.00,weatherlink.com 1.10,2013-03-24 15:40:00,
2013-03-24 11:55:00,42.7,24.0,29.79,WNW,301,1.0,3.0,47,0.00,,,0.00,weatherlink.com 1.10,2013-03-24 15:55:00,
2013-03-24 12:10:00,43.7,25.0,29.79,ESE,119,2.0,4.0,48,0.00,,,0.00,weatherlink.com 1.10,2013-03-24 16:10:00,
2013-03-24 12:25:00,44.5,25.0,29.78,SW,231,3.0,7.0,47,0.00,,,0.00,weatherlink.com 1.10,2013-03-24 16:25:00,
2013-03-24 12:40:00,46.0,26.0,29.78,North,9,3.0,3.0,46,0.00,,,0.00,weatherlink.com 1.10,2013-03-24 16:40:00,
2013-03-24 12:55:00,45.3,25.0,29.77,North,4,1.0,3.0,46,0.00,,,0.00,weatherlink.com 1.10,2013-03-24 16:55:00,
2013-03-24 13:10:00,46.7,25.0,29.77,NNW,329,3.0,4.0,43,0.00,,,0.00,weatherlink.com 1.10,2013-03-24 17:10:00,
2013-03-24 13:25:00,46.4,25.0,29.76,ESE,122,1.0,4.0,43,0.00,,,0.00,weatherlink.com 1.10,2013-03-24 17:25:00,
2013-03-24 13:40:00,45.8,24.0,29.76,ESE,109,2.0,4.0,43,0.00,,,0.00,weatherlink.com 1.10,2013-03-24 17:40:00,
2013-03-24 13:55:00,45.8,25.0,29.75,West,259,1.0,6.0,45,0.00,,,0.00,weatherlink.com 1.10,2013-03-24 17:55:00,
2013-03-24 14:10:00,45.9,24.0,29.74,SE,129,1.0,6.0,43,0.00,,,0.00,weatherlink.com 1.10,2013-03-24 18:10:00,
2013-03-24 14:25:00,46.0,25.0,29.75,West,266,1.0,4.0,44,0.00,,,0.00,weatherlink.com 1.10,2013-03-24 18:25:00,
2013-03-24 14:40:00,46.3,25.0,29.74,SE,133,1.0,4.0,44,0.00,,,0.00,weatherlink.com 1.10,2013-03-24 18:40:00,
2013-03-24 14:55:00,46.5,25.0,29.73,North,358,1.0,5.0,44,0.00,,,0.00,weatherlink.com 1.10,2013-03-24 18:55:00,
2013-03-24 15:10:00,46.5,24.0,29.72,West,280,1.0,5.0,42,0.00,,,0.00,weatherlink.com 1.10,2013-03-24 19:10:00,
2013-03-24 15:25:00,46.4,25.0,29.72,NNW,329,1.0,3.0,44,0.00,,,0.00,weatherlink.com 1.10,2013-03-24 19:25:00,
2013-03-24 15:40:00,46.0,26.0,29.71,NNW,330,2.0,4.0,46,0.00,,,0.00,weatherlink.com 1.10,2013-03-24 19:40:00,
2013-03-24 15:55:00,46.0,26.0,29.70,North,358,2.0,3.0,46,0.00,,,0.00,weatherlink.com 1.10,2013-03-24 19:55:00,
2013-03-24 16:10:00,45.5,25.0,29.70,NNE,13,3.0,6.0,45,0.00,,,0.00,weatherlink.com 1.10,2013-03-24 20:10:00,
2013-03-24 16:25:00,45.6,26.0,29.70,North,360,1.0,4.0,46,0.00,,,0.00,weatherlink.com 1.10,2013-03-24 20:25:00,
2013-03-24 16:40:00,45.6,25.0,29.70,North,6,3.0,5.0,45,0.00,,,0.00,weatherlink.com 1.10,2013-03-24 20:40:00,
2013-03-24 16:55:00,44.9,24.0,29.70,West,280,1.0,4.0,44,0.00,,,0.00,weatherlink.com 1.10,2013-03-24 20:55:00,
2013-03-24 17:10:00,44.3,26.0,29.70,NNW,330,1.0,3.0,49,0.00,,,0.00,weatherlink.com 1.10,2013-03-24 21:10:00,
2013-03-24 17:25:00,44.3,25.0,29.70,North,4,2.0,3.0,46,0.00,,,0.00,weatherlink.com 1.10,2013-03-24 21:25:00,
2013-03-24 17:40:00,43.9,25.0,29.71,East,89,1.0,7.0,47,0.00,,,0.00,weatherlink.com 1.10,2013-03-24 21:40:00,
2013-03-24 17:55:00,43.3,26.0,29.71,WNW,288,0.0,3.0,50,0.00,,,0.00,weatherlink.com 1.10,2013-03-24 21:55:00,
2013-03-24 18:10:00,42.8,25.0,29.72,WSW,240,1.0,1.0,49,0.00,,,0.00,weatherlink.com 1.10,2013-03-24 22:10:00,
2013-03-24 18:25:00,42.2,26.0,29.72,NW,313,0.0,1.0,52,0.00,,,0.00,weatherlink.com 1.10,2013-03-24 22:25:00,
2013-03-24 18:40:00,41.6,25.0,29.72,NNE,12,0.0,3.0,52,0.00,,,0.00,weatherlink.com 1.10,2013-03-24 22:40:00,
2013-03-24 18:55:00,40.8,26.0,29.72,NNW,329,0.0,1.0,56,0.00,,,0.00,weatherlink.com 1.10,2013-03-24 22:55:00,
2013-03-24 19:10:00,39.6,26.0,29.72,NNW,329,0.0,0.0,58,0.00,,,0.00,weatherlink.com 1.10,2013-03-24 23:10:00,
2013-03-24 19:25:00,38.7,26.0,29.72,NNW,328,0.0,0.0,60,0.00,,,0.00,weatherlink.com 1.10,2013-03-24 23:25:00,
2013-03-24 19:40:00,37.9,26.0,29.72,NNW,328,0.0,0.0,62,0.00,,,0.00,weatherlink.com 1.10,2013-03-24 23:40:00,
2013-03-24 19:55:00,37.3,25.0,29.73,NNW,328,0.0,0.0,62,0.00,,,0.00,weatherlink.com 1.10,2013-03-24 23:55:00,
2013-03-24 20:10:00,36.4,26.0,29.73,NNW,327,0.0,0.0,67,0.00,,,0.00,weatherlink.com 1.10,2013-03-25 00:10:00,
2013-03-24 20:25:00,35.7,26.0,29.73,NNW,328,0.0,1.0,68,0.00,,,0.00,weatherlink.com 1.10,2013-03-25 00:25:00,
2013-03-24 20:40:00,35.4,25.0,29.73,NNW,328,0.0,0.0,67,0.00,,,0.00,weatherlink.com 1.10,2013-03-25 00:40:00,
2013-03-24 20:55:00,35.1,26.0,29.74,NNW,328,0.0,0.0,69,0.00,,,0.00,weatherlink.com 1.10,2013-03-25 00:55:00,
2013-03-24 21:10:00,34.1,27.0,29.75,NNW,328,1.0,0.0,76,0.00,,,0.00,weatherlink.com 1.10,2013-03-25 01:10:00,
2013-03-24 21:30:00,33.5,27.0,29.77,NNW,327,0.0,0.0,77,0.00,,,0.00,weatherlink.com 1.10,2013-03-25 01:30:00,
2013-03-24 21:41:00,33.1,27.0,29.77,NNW,328,0.0,1.0,78,0.00,,,0.00,weatherlink.com 1.10,2013-03-25 01:41:00,
2013-03-24 21:56:00,32.6,26.0,29.77,NNW,328,0.0,0.0,78,0.00,,,0.00,weatherlink.com 1.10,2013-03-25 01:56:00,
2013-03-24 22:11:00,32.1,27.0,29.77,NNW,340,0.0,2.0,81,0.00,,,0.00,weatherlink.com 1.10,2013-03-25 02:11:00,
2013-03-24 22:26:00,32.4,26.0,29.77,NNW,340,0.0,0.0,78,0.00,,,0.00,weatherlink.com 1.10,2013-03-25 02:26:00,
2013-03-24 22:41:00,33.1,27.0,29.76,NNW,340,0.0,1.0,77,0.00,,,0.00,weatherlink.com 1.10,2013-03-25 02:41:00,
2013-03-24 22:56:00,33.9,27.0,29.76,NNW,340,0.0,0.0,75,0.00,,,0.00,weatherlink.com 1.10,2013-03-25 02:56:00,
2013-03-24 23:11:00,34.5,28.0,29.75,WSW,253,0.0,1.0,77,0.00,,,0.00,weatherlink.com 1.10,2013-03-25 03:11:00,
2013-03-24 23:26:00,34.5,28.0,29.75,WSW,249,0.0,1.0,76,0.00,,,0.00,weatherlink.com 1.10,2013-03-25 03:26:00,
2013-03-24 23:41:00,34.4,28.0,29.75,WSW,240,0.0,1.0,76,0.00,,,0.00,weatherlink.com 1.10,2013-03-25 03:41:00,
2013-03-24 23:56:00,34.6,28.0,29.74,WSW,240,0.0,1.0,77,0.00,,,0.00,weatherlink.com 1.10,2013-03-25 03:56:00,